Time;durP1;ratioP1;P1;durP2;ratioP2;P2;SDS_P1;SDS_P2;PMS_P1;PMS_P2;Temp;Humidity;BMP_temperature;BMP_pressure;BME280_temperature;BME280_humidity;BME280_pressure;Samples;Min_cycle;Max_cycle;Signal;HPM_P1;HPM_P2
2023/09/26 00:02:13;;;;;;;13.57;6.60;;;;;;;15.73;71.95;102076.78;5035407;28;20495;-67
2023/09/26 00:04:38;;;;;;;11.95;7.13;;;;;;;15.79;71.61;102077.38;5040409;28;20741;-67
2023/09/26 00:07:03;;;;;;;10.73;7.55;;;;;;;15.82;71.61;102074.59;5019135;28;20045;-68
2023/09/26 00:09:30;;;;;;;7.68;5.80;;;;;;;15.82;70.54;102069.25;5037869;28;20021;-68
2023/09/26 00:11:55;;;;;;;7.10;6.07;;;;;;;15.80;70.76;102073.75;5045194;28;20033;-68
2023/09/26 00:14:21;;;;;;;7.45;5.75;;;;;;;15.76;70.57;102066.84;5052324;28;20475;-68
2023/09/26 00:16:46;;;;;;;8.95;5.97;;;;;;;15.71;70.39;102073.28;5039816;28;20454;-68
2023/09/26 00:19:12;;;;;;;9.38;6.32;;;;;;;15.72;69.39;102069.72;5038523;28;20024;-68
2023/09/26 00:21:37;;;;;;;9.20;5.80;;;;;;;15.69;70.20;102075.16;5043778;28;20025;-68
2023/09/26 00:24:02;;;;;;;8.32;5.93;;;;;;;15.64;70.43;102071.81;5045654;28;20111;-68
2023/09/26 00:26:28;;;;;;;8.57;6.40;;;;;;;15.65;69.53;102077.09;5044443;28;20026;-68
2023/09/26 00:28:53;;;;;;;9.32;6.63;;;;;;;15.61;69.34;102072.78;5044346;28;20029;-68
2023/09/26 00:31:18;;;;;;;8.50;6.25;;;;;;;15.56;69.56;102082.75;5047531;28;20036;-68
2023/09/26 00:33:44;;;;;;;7.35;6.18;;;;;;;15.54;69.95;102079.31;5043600;28;20382;-68
2023/09/26 00:36:12;;;;;;;6.70;5.85;;;;;;;15.54;70.81;102082.84;5038911;28;20041;-68
2023/09/26 00:38:38;;;;;;;6.90;5.30;;;;;;;15.52;70.61;102083.81;5042824;28;20180;-68
2023/09/26 00:41:05;;;;;;;7.43;5.20;;;;;;;15.48;70.42;102076.88;5047680;28;20178;-68
2023/09/26 00:43:31;;;;;;;9.40;5.50;;;;;;;15.42;71.11;102077.13;5043612;28;20025;-68
2023/09/26 00:45:57;;;;;;;7.03;4.95;;;;;;;15.40;70.85;102074.53;5052118;28;20396;-68
2023/09/26 00:48:24;;;;;;;7.80;4.97;;;;;;;15.32;70.66;102072.16;5039481;28;20063;-67
2023/09/26 00:50:51;;;;;;;12.15;5.25;;;;;;;15.30;70.17;102081.19;5044983;28;20549;-68
2023/09/26 00:53:17;;;;;;;12.73;5.80;;;;;;;15.26;70.95;102074.22;5044731;28;20041;-68
2023/09/26 00:55:44;;;;;;;17.05;6.75;;;;;;;15.24;71.47;102079.59;5045934;28;20251;-68
2023/09/26 00:58:11;;;;;;;14.85;7.35;;;;;;;15.22;71.68;102078.81;5038848;28;20060;-68
2023/09/26 01:00:38;;;;;;;9.45;6.45;;;;;;;15.25;71.28;102070.69;5041213;28;20017;-68
2023/09/26 01:03:04;;;;;;;16.30;7.45;;;;;;;15.31;70.80;102067.78;5041226;28;20041;-68
2023/09/26 01:05:30;;;;;;;7.97;5.78;;;;;;;15.32;70.87;102066.84;5037075;28;20031;-68
2023/09/26 01:07:55;;;;;;;9.13;5.40;;;;;;;15.26;71.13;102063.56;5040674;28;20052;-68
2023/09/26 01:10:20;;;;;;;7.05;4.75;;;;;;;15.17;71.34;102059.47;5035533;28;20120;-68
2023/09/26 01:12:46;;;;;;;9.13;5.18;;;;;;;15.11;71.72;102061.50;5042324;28;20056;-68
2023/09/26 01:15:11;;;;;;;5.25;4.60;;;;;;;15.10;71.22;102059.78;5040231;28;20541;-68
2023/09/26 01:17:37;;;;;;;5.65;4.22;;;;;;;15.16;70.67;102055.09;5039911;28;20030;-68
2023/09/26 01:20:15;;;;;;;7.03;5.20;;;;;;;15.11;71.18;102056.16;5043725;28;20045;-68
2023/09/26 01:22:45;;;;;;;7.18;6.03;;;;;;;15.15;69.99;102048.00;5047592;28;20020;-68
2023/09/26 01:25:10;;;;;;;9.05;6.65;;;;;;;15.15;70.42;102057.78;5036556;28;20034;-68
2023/09/26 01:27:36;;;;;;;10.43;6.88;;;;;;;15.15;71.28;102063.13;5040344;28;20048;-68
2023/09/26 01:30:01;;;;;;;8.43;4.45;;;;;;;15.11;71.54;102066.81;5037072;28;20033;-68
2023/09/26 01:32:26;;;;;;;9.15;4.68;;;;;;;15.07;71.28;102063.44;5043925;28;20029;-68
2023/09/26 01:34:51;;;;;;;6.70;5.07;;;;;;;15.10;70.91;102062.44;5045047;28;20037;-68
2023/09/26 01:37:17;;;;;;;9.27;5.25;;;;;;;15.10;71.83;102057.97;5036191;28;20482;-67
2023/09/26 01:39:42;;;;;;;6.32;5.15;;;;;;;15.17;71.68;102067.47;5041087;28;20025;-67
2023/09/26 01:42:07;;;;;;;8.80;6.22;;;;;;;15.19;71.21;102067.41;5047273;28;20032;-67
2023/09/26 01:44:33;;;;;;;6.90;5.97;;;;;;;15.22;70.55;102060.16;5042412;28;20393;-67
2023/09/26 01:46:58;;;;;;;11.02;6.63;;;;;;;15.23;71.88;102075.19;5032590;28;20247;-67
2023/09/26 01:49:25;;;;;;;9.43;5.95;;;;;;;15.20;71.32;102071.78;5047304;28;20033;-67
2023/09/26 01:51:51;;;;;;;7.93;6.30;;;;;;;15.17;71.00;102067.47;5042736;28;20772;-67
2023/09/26 01:54:16;;;;;;;8.70;6.10;;;;;;;15.10;70.41;102067.75;5044512;28;20036;-67
2023/09/26 01:56:41;;;;;;;11.10;6.25;;;;;;;15.11;70.44;102058.84;5043060;28;20538;-67
2023/09/26 01:59:07;;;;;;;9.77;6.82;;;;;;;15.04;71.33;102058.22;5031769;28;20021;-67
2023/09/26 02:01:32;;;;;;;9.95;7.45;;;;;;;15.00;71.62;102061.94;5036017;28;20372;-67
2023/09/26 02:03:57;;;;;;;7.90;6.40;;;;;;;14.96;71.13;102054.97;5038372;28;20040;-67
2023/09/26 02:06:23;;;;;;;11.30;8.05;;;;;;;14.93;72.24;102057.78;5052298;28;20043;-67
2023/09/26 02:08:48;;;;;;;12.82;7.78;;;;;;;14.84;72.68;102052.81;5043100;28;20511;-67
2023/09/26 02:11:13;;;;;;;8.95;7.03;;;;;;;14.87;72.40;102045.56;5039576;28;20503;-67
2023/09/26 02:13:38;;;;;;;7.30;6.57;;;;;;;14.89;72.40;102051.69;5036981;28;20027;-67
2023/09/26 02:16:10;;;;;;;9.35;6.07;;;;;;;14.94;71.96;102048.88;5031878;28;20021;-67
2023/09/26 02:18:35;;;;;;;7.75;6.95;;;;;;;14.97;71.52;102054.06;5042049;28;20021;-67
2023/09/26 02:21:00;;;;;;;10.10;6.60;;;;;;;14.99;71.96;102041.56;5039900;28;20062;-67
2023/09/26 02:23:25;;;;;;;9.57;6.82;;;;;;;14.95;72.01;102048.78;5032979;28;20386;-67
2023/09/26 02:25:51;;;;;;;7.53;6.63;;;;;;;14.91;72.11;102040.97;5053054;28;20021;-67
2023/09/26 02:28:18;;;;;;;9.77;7.15;;;;;;;14.90;71.59;102036.59;5037859;28;20049;-67
2023/09/26 02:30:43;;;;;;;8.60;7.43;;;;;;;14.88;70.97;102035.78;5055297;28;20495;-67
2023/09/26 02:33:08;;;;;;;8.82;7.60;;;;;;;14.85;71.85;102035.91;5043252;28;20067;-67
2023/09/26 02:35:33;;;;;;;10.85;7.50;;;;;;;14.77;71.39;102042.38;5043458;28;20025;-67
2023/09/26 02:37:59;;;;;;;9.30;7.15;;;;;;;14.78;71.07;102038.81;5049399;28;20465;-67
2023/09/26 02:40:24;;;;;;;7.07;6.20;;;;;;;14.79;70.90;102045.88;5048441;28;20040;-67
2023/09/26 02:42:50;;;;;;;7.88;6.85;;;;;;;14.75;71.35;102043.38;5038844;28;20029;-67
2023/09/26 02:45:16;;;;;;;7.55;6.85;;;;;;;14.72;71.64;102046.16;5050528;28;20044;-67
2023/09/26 02:47:42;;;;;;;8.45;6.78;;;;;;;14.70;71.95;102040.03;5048694;28;20049;-67
2023/09/26 02:50:08;;;;;;;9.95;7.43;;;;;;;14.61;72.31;102038.59;5039943;28;20031;-67
2023/09/26 02:52:33;;;;;;;8.65;7.32;;;;;;;14.61;71.79;102029.72;5048142;28;20447;-67
2023/09/26 02:55:00;;;;;;;7.20;6.15;;;;;;;14.58;71.84;102017.41;5036381;28;20033;-67
2023/09/26 02:57:25;;;;;;;7.22;6.30;;;;;;;14.57;71.78;102018.31;5036663;28;20103;-69
2023/09/26 02:59:51;;;;;;;7.57;6.30;;;;;;;14.57;72.00;102014.81;5039092;28;20472;-67
2023/09/26 03:02:16;;;;;;;6.78;5.60;;;;;;;14.58;72.02;102013.88;5041585;28;20039;-67
2023/09/26 03:04:42;;;;;;;7.30;5.80;;;;;;;14.53;72.30;102006.91;5039719;28;20033;-68
2023/09/26 03:07:07;;;;;;;7.65;5.70;;;;;;;14.48;72.24;102013.34;5033123;28;20083;-68
2023/09/26 03:09:33;;;;;;;7.05;6.05;;;;;;;14.45;72.27;102000.97;5044891;28;20032;-68
2023/09/26 03:11:58;;;;;;;10.40;6.70;;;;;;;14.33;73.31;102003.25;5035425;28;20033;-68
2023/09/26 03:14:23;;;;;;;8.93;6.65;;;;;;;14.11;73.56;101996.06;5035810;28;20028;-69
2023/09/26 03:16:49;;;;;;;9.60;8.30;;;;;;;13.91;75.29;101996.78;5032701;28;20476;-68
2023/09/26 03:19:16;;;;;;;10.23;7.53;;;;;;;13.79;75.59;101994.53;5040738;28;20061;-68
2023/09/26 03:21:42;;;;;;;8.07;7.05;;;;;;;13.84;75.28;101995.25;5044333;28;20496;-68
2023/09/26 03:24:07;;;;;;;8.43;7.47;;;;;;;13.95;74.66;102000.22;5033218;28;20025;-67
2023/09/26 03:26:33;;;;;;;7.55;6.85;;;;;;;13.97;74.90;102004.53;5045715;28;20155;-67
2023/09/26 03:28:58;;;;;;;9.27;6.82;;;;;;;14.00;74.95;102000.91;5055849;28;20060;-67
2023/09/26 03:31:23;;;;;;;10.88;8.55;;;;;;;13.96;75.28;101991.31;5047935;28;20764;-67
2023/09/26 03:33:50;;;;;;;11.15;8.68;;;;;;;13.92;75.42;101997.66;5031812;28;20036;-66
2023/09/26 03:36:15;;;;;;;11.02;9.20;;;;;;;13.92;75.21;101998.50;5032467;28;20115;-67
2023/09/26 03:38:40;;;;;;;9.15;7.80;;;;;;;13.98;74.47;101994.75;5036896;28;20100;-68
2023/09/26 03:41:06;;;;;;;9.55;8.20;;;;;;;14.01;74.96;101990.22;5036320;28;20108;-68
2023/09/26 03:43:31;;;;;;;11.18;8.13;;;;;;;13.89;75.97;102001.25;5038139;28;20025;-68
2023/09/26 03:46:02;;;;;;;13.57;8.30;;;;;;;13.84;76.09;101999.69;5042183;28;20127;-68
2023/09/26 03:48:28;;;;;;;9.82;8.30;;;;;;;13.86;75.91;101997.88;5052559;28;20031;-67
2023/09/26 03:50:53;;;;;;;11.55;8.70;;;;;;;13.91;75.82;101993.25;5042200;28;20411;-68
2023/09/26 03:53:19;;;;;;;10.55;8.25;;;;;;;13.96;75.58;101996.63;5042382;28;20104;-68
2023/09/26 03:55:53;;;;;;;11.30;8.70;;;;;;;13.95;75.41;101994.88;5038525;28;20048;-68
2023/09/26 03:58:18;;;;;;;12.88;9.30;;;;;;;13.99;75.63;101996.53;5037761;28;20625;-67
2023/09/26 04:00:44;;;;;;;15.38;9.02;;;;;;;14.06;74.56;101997.16;5040225;28;20048;-67
2023/09/26 04:03:09;;;;;;;9.52;7.93;;;;;;;14.04;73.01;101995.44;5036665;28;20024;-67
2023/09/26 04:05:34;;;;;;;12.77;8.57;;;;;;;13.98;73.92;101989.44;5029147;28;20090;-67
2023/09/26 04:07:59;;;;;;;9.32;8.30;;;;;;;13.92;72.85;101987.88;5039292;28;20455;-67
2023/09/26 04:10:25;;;;;;;13.77;8.32;;;;;;;13.98;73.66;101987.66;5037200;28;20037;-67
2023/09/26 04:12:50;;;;;;;9.95;8.48;;;;;;;13.92;74.08;101987.00;5033989;28;20031;-67
2023/09/26 04:15:15;;;;;;;8.70;7.57;;;;;;;13.89;73.82;101995.09;5044915;28;20451;-67
2023/09/26 04:17:41;;;;;;;10.52;7.70;;;;;;;13.86;74.24;101993.41;5040836;28;20077;-67
2023/09/26 04:20:13;;;;;;;12.95;8.77;;;;;;;13.83;74.52;101985.53;5038628;28;20036;-67
2023/09/26 04:22:38;;;;;;;8.75;7.45;;;;;;;13.84;73.69;101991.72;5053669;28;20059;-67
2023/09/26 04:25:04;;;;;;;9.43;8.25;;;;;;;13.86;73.47;101993.41;5038478;28;20484;-67
2023/09/26 04:27:29;;;;;;;9.82;8.38;;;;;;;13.88;73.18;101988.03;5048139;28;20038;-67
2023/09/26 04:29:54;;;;;;;9.43;8.00;;;;;;;13.83;73.00;101984.69;5044915;28;20024;-67
2023/09/26 04:32:19;;;;;;;9.40;7.30;;;;;;;13.82;73.00;101983.81;5051067;28;20484;-68
2023/09/26 04:34:45;;;;;;;10.55;6.80;;;;;;;13.81;73.08;101967.94;5046308;28;20037;-67
2023/09/26 04:37:10;;;;;;;8.93;7.15;;;;;;;13.76;73.57;101968.97;5047634;28;20468;-67
2023/09/26 04:39:35;;;;;;;10.10;6.47;;;;;;;13.64;74.18;101965.84;5048840;28;20029;-67
2023/09/26 04:42:01;;;;;;;14.23;6.97;;;;;;;13.55;74.46;101960.84;5043014;28;20017;-67
2023/09/26 04:44:26;;;;;;;11.60;7.28;;;;;;;13.49;74.64;101973.44;5051795;28;20036;-67
2023/09/26 04:46:51;;;;;;;11.48;8.93;;;;;;;13.43;75.33;101963.03;5047567;28;20032;-67
2023/09/26 04:49:17;;;;;;;12.43;9.38;;;;;;;13.26;76.35;101958.28;5046292;28;20036;-67
2023/09/26 04:51:42;;;;;;;14.95;9.07;;;;;;;13.16;76.81;101959.47;5054849;28;20032;-67
2023/09/26 04:54:07;;;;;;;16.85;9.65;;;;;;;13.14;77.17;101961.28;5045112;28;20025;-67
2023/09/26 04:56:35;;;;;;;13.68;10.13;;;;;;;13.22;77.43;101963.75;5035439;28;20052;-67
2023/09/26 04:59:00;;;;;;;12.23;8.13;;;;;;;13.38;75.88;101964.97;5043421;28;20029;-67
2023/09/26 05:01:26;;;;;;;10.85;8.52;;;;;;;13.48;75.41;101945.16;5043033;28;20123;-67
2023/09/26 05:03:52;;;;;;;13.23;8.57;;;;;;;13.56;75.02;101950.16;5048528;28;20028;-67
2023/09/26 05:06:17;;;;;;;15.85;9.60;;;;;;;13.57;75.07;101951.03;5039914;28;20117;-67
2023/09/26 05:08:43;;;;;;;15.00;9.23;;;;;;;13.59;76.04;101949.22;5038186;28;20053;-67
2023/09/26 05:11:14;;;;;;;15.23;9.68;;;;;;;13.54;76.37;101952.03;5046276;28;20072;-67
2023/09/26 05:13:41;;;;;;;14.30;9.32;;;;;;;13.49;76.15;101949.53;5036555;28;20132;-67
2023/09/26 05:16:10;;;;;;;13.23;10.18;;;;;;;13.48;77.00;101954.91;5033322;28;20064;-67
2023/09/26 05:18:36;;;;;;;11.55;9.02;;;;;;;13.50;76.01;101955.72;5050915;28;20028;-67
2023/09/26 05:21:08;;;;;;;19.25;10.15;;;;;;;13.42;77.66;101950.66;5046664;28;20537;-67
2023/09/26 05:23:34;;;;;;;13.05;10.38;;;;;;;13.39;77.45;101957.88;5040022;28;20473;-67
2023/09/26 05:26:08;;;;;;;11.57;9.68;;;;;;;13.45;77.34;101957.66;5039428;28;20024;-67
2023/09/26 05:28:33;;;;;;;18.02;10.35;;;;;;;13.48;77.30;101960.22;5045642;28;20456;-67
2023/09/26 05:30:58;;;;;;;13.68;9.60;;;;;;;13.49;77.13;101965.47;5032809;28;20078;-68
2023/09/26 05:33:24;;;;;;;16.95;10.40;;;;;;;13.42;77.79;101960.41;5050322;28;20432;-67
2023/09/26 05:35:49;;;;;;;13.85;10.30;;;;;;;13.44;77.29;101951.47;5044988;28;20075;-67
2023/09/26 05:38:14;;;;;;;14.32;9.02;;;;;;;13.45;77.20;101955.88;5031539;28;20037;-67
2023/09/26 05:40:40;;;;;;;16.90;9.98;;;;;;;13.51;77.40;101950.31;5038706;28;20025;-67
2023/09/26 05:43:05;;;;;;;16.27;9.18;;;;;;;13.50;78.16;101955.72;5048903;28;20025;-67
2023/09/26 05:45:30;;;;;;;19.52;9.23;;;;;;;13.48;77.39;101965.53;5027087;28;20029;-67
2023/09/26 05:47:55;;;;;;;11.38;8.82;;;;;;;13.45;77.62;101958.53;5045330;28;20267;-67
2023/09/26 05:50:21;;;;;;;12.07;9.75;;;;;;;13.56;77.72;101963.47;5032584;28;20503;-67
2023/09/26 05:52:46;;;;;;;11.77;9.65;;;;;;;13.62;77.50;101968.56;5046349;28;20045;-67
2023/09/26 05:55:11;;;;;;;16.92;10.57;;;;;;;13.60;78.34;101970.41;5033554;28;20520;-67
2023/09/26 05:57:36;;;;;;;11.57;9.35;;;;;;;13.70;77.20;101976.25;5042877;28;20029;-67
2023/09/26 06:00:05;;;;;;;11.30;8.07;;;;;;;13.76;76.61;101973.41;5040333;28;20021;-68
2023/09/26 06:02:30;;;;;;;11.23;9.00;;;;;;;13.87;76.11;101975.69;5038522;28;20737;-68
2023/09/26 06:04:55;;;;;;;17.17;10.13;;;;;;;13.90;77.04;101973.78;5033275;28;20032;-68
2023/09/26 06:07:21;;;;;;;13.88;9.20;;;;;;;14.00;76.43;101975.19;5037614;28;20049;-68
2023/09/26 06:09:48;;;;;;;14.40;9.48;;;;;;;14.09;77.10;101979.31;5041618;28;20159;-68
2023/09/26 06:12:13;;;;;;;12.35;8.50;;;;;;;14.18;76.22;101978.09;5047436;28;20025;-68
2023/09/26 06:14:38;;;;;;;15.07;9.02;;;;;;;14.29;76.08;101979.41;5049971;28;20032;-68
2023/09/26 06:17:04;;;;;;;11.50;8.13;;;;;;;14.37;75.67;101981.81;5041087;28;20063;-68
2023/09/26 06:19:29;;;;;;;12.15;8.60;;;;;;;14.37;76.58;101973.81;5047135;28;20017;-68
2023/09/26 06:21:54;;;;;;;11.55;8.35;;;;;;;14.48;76.49;101976.09;5048309;28;20029;-67
2023/09/26 06:24:19;;;;;;;12.43;8.57;;;;;;;14.54;76.39;101971.41;5046673;28;20464;-68
2023/09/26 06:26:45;;;;;;;15.45;9.85;;;;;;;14.57;76.98;101965.09;5038139;28;20037;-68
2023/09/26 06:29:10;;;;;;;10.35;9.02;;;;;;;14.63;76.19;101959.53;5041148;28;20087;-68
2023/09/26 06:31:35;;;;;;;12.48;9.32;;;;;;;14.66;77.03;101956.75;5050294;28;20204;-68
2023/09/26 06:34:01;;;;;;;12.30;8.75;;;;;;;14.72;76.65;101955.63;5045787;28;20029;-68
2023/09/26 06:36:30;;;;;;;13.20;9.05;;;;;;;14.69;76.94;101946.00;5036703;28;20037;-68
2023/09/26 06:38:57;;;;;;;13.25;9.18;;;;;;;14.73;77.25;101938.72;5043358;28;20060;-68
2023/09/26 06:41:22;;;;;;;11.07;8.82;;;;;;;14.73;76.76;101946.72;5047601;28;20036;-68
2023/09/26 06:43:48;;;;;;;12.30;9.82;;;;;;;14.74;76.57;101953.81;5036029;28;20037;-68
2023/09/26 06:46:13;;;;;;;11.85;9.60;;;;;;;14.76;76.78;101952.81;5038328;28;20100;-68
2023/09/26 06:48:38;;;;;;;12.77;9.45;;;;;;;14.87;76.68;101960.34;5046875;28;20033;-68
2023/09/26 06:51:05;;;;;;;15.82;9.52;;;;;;;14.92;76.83;101960.16;5055841;28;20056;-68
2023/09/26 06:53:31;;;;;;;10.38;8.93;;;;;;;14.97;75.67;101963.53;5036672;28;20052;-67
2023/09/26 06:56:00;;;;;;;11.90;9.68;;;;;;;15.05;76.25;101958.75;5039187;28;20530;-68
2023/09/26 06:58:26;;;;;;;12.90;9.55;;;;;;;15.19;76.38;101961.69;5040099;28;20598;-68
2023/09/26 07:00:52;;;;;;;11.65;8.77;;;;;;;15.20;74.69;101966.13;5038461;28;20127;-68
2023/09/26 07:03:18;;;;;;;12.02;8.38;;;;;;;15.29;74.60;101965.75;5049749;28;20472;-68
2023/09/26 07:05:43;;;;;;;10.43;8.40;;;;;;;15.37;75.40;101969.88;5049304;28;20577;-68
2023/09/26 07:08:12;;;;;;;10.18;8.02;;;;;;;15.45;74.05;101976.59;5042902;28;20045;-68
2023/09/26 07:10:38;;;;;;;11.65;10.05;;;;;;;15.49;75.94;101972.03;5046830;28;20485;-68
2023/09/26 07:13:04;;;;;;;11.20;8.95;;;;;;;15.53;74.78;101973.63;5044511;28;20032;-68
2023/09/26 07:15:31;;;;;;;11.70;8.52;;;;;;;15.61;75.31;101966.16;5039246;28;20452;-68
2023/09/26 07:17:58;;;;;;;8.95;8.02;;;;;;;15.72;74.53;101965.72;5038838;28;20052;-68
2023/09/26 07:20:24;;;;;;;12.00;9.27;;;;;;;15.80;75.03;101961.78;5046036;28;20017;-68
2023/09/26 07:22:49;;;;;;;12.35;9.05;;;;;;;15.89;73.81;101965.84;5039200;28;20043;-68
2023/09/26 07:25:15;;;;;;;11.13;9.52;;;;;;;16.10;74.20;101961.34;5044791;28;20025;-68
2023/09/26 07:27:40;;;;;;;10.93;8.45;;;;;;;16.25;72.93;101965.13;5035906;28;20024;-69
2023/09/26 07:30:07;;;;;;;11.35;7.35;;;;;;;16.45;73.19;101958.84;5037873;28;20058;-67
2023/09/26 07:32:33;;;;;;;10.45;8.23;;;;;;;16.59;71.59;101967.06;5038240;28;20035;-67
2023/09/26 07:34:58;;;;;;;11.23;8.80;;;;;;;16.68;72.01;101969.31;5037398;28;20033;-67
2023/09/26 07:37:24;;;;;;;12.00;9.43;;;;;;;16.72;71.04;101962.91;5037036;28;20033;-68
2023/09/26 07:39:51;;;;;;;10.10;8.50;;;;;;;16.81;71.51;101969.63;5036258;28;20033;-68
2023/09/26 07:42:18;;;;;;;11.90;8.32;;;;;;;16.97;70.99;101967.06;5039640;28;20433;-67
2023/09/26 07:44:43;;;;;;;11.35;7.88;;;;;;;17.09;70.68;101967.34;5034231;28;20071;-67
2023/09/26 07:47:09;;;;;;;11.43;8.23;;;;;;;17.20;70.70;101972.13;5035405;28;20053;-67
2023/09/26 07:49:34;;;;;;;12.80;7.97;;;;;;;17.25;70.12;101962.09;5036356;28;20431;-67
2023/09/26 07:51:59;;;;;;;10.15;8.07;;;;;;;17.50;69.19;101964.38;5041089;28;20028;-67
2023/09/26 07:54:25;;;;;;;9.90;8.10;;;;;;;17.73;68.40;101959.66;5047256;28;20053;-67
2023/09/26 07:56:50;;;;;;;10.95;8.07;;;;;;;17.85;68.03;101962.56;5040076;28;20030;-67
2023/09/26 07:59:16;;;;;;;10.00;7.47;;;;;;;17.94;67.32;101965.72;5034647;28;20048;-67
2023/09/26 08:01:42;;;;;;;9.23;7.03;;;;;;;17.99;67.37;101960.97;5045431;28;20022;-67
2023/09/26 08:04:07;;;;;;;11.10;7.82;;;;;;;17.95;68.51;101968.31;5046951;28;20079;-67
2023/09/26 08:06:33;;;;;;;7.35;6.65;;;;;;;18.05;68.08;101963.34;5052580;28;20383;-67
2023/09/26 08:08:58;;;;;;;9.75;7.47;;;;;;;18.10;67.11;101977.34;5053193;28;20041;-68
2023/09/26 08:11:27;;;;;;;9.10;7.82;;;;;;;18.03;68.40;101971.44;5048927;28;20031;-67
2023/09/26 08:13:53;;;;;;;10.52;7.90;;;;;;;17.98;69.46;101968.16;5047452;28;20345;-67
2023/09/26 08:16:19;;;;;;;10.45;8.52;;;;;;;18.08;69.56;101958.69;5045333;28;20033;-67
2023/09/26 08:18:44;;;;;;;8.55;7.57;;;;;;;18.20;68.20;101956.31;5052690;28;20036;-67
2023/09/26 08:21:09;;;;;;;9.30;7.53;;;;;;;18.28;67.82;101940.69;5046671;28;20556;-67
2023/09/26 08:23:35;;;;;;;11.75;8.15;;;;;;;18.45;66.72;101939.75;5050330;28;20130;-67
2023/09/26 08:26:06;;;;;;;11.20;8.32;;;;;;;18.53;67.51;101945.53;5060281;28;20028;-67
2023/09/26 08:28:32;;;;;;;9.60;8.65;;;;;;;18.70;66.99;101950.84;5043783;28;20408;-67
2023/09/26 08:31:07;;;;;;;13.77;8.82;;;;;;;18.86;67.37;101964.22;5043331;28;20017;-67
2023/09/26 08:33:34;;;;;;;10.70;8.85;;;;;;;19.03;66.75;101944.50;5036484;28;20033;-68
2023/09/26 08:36:00;;;;;;;9.52;8.45;;;;;;;19.57;65.59;101939.50;5040885;28;20478;-68
2023/09/26 08:38:25;;;;;;;10.07;8.77;;;;;;;19.86;64.06;101938.63;5028397;28;20028;-69
2023/09/26 08:40:53;;;;;;;9.80;7.97;;;;;;;20.09;62.36;101947.06;5044989;28;20079;-69
2023/09/26 08:43:26;;;;;;;9.77;7.95;;;;;;;20.51;63.50;101950.69;5041431;28;20102;-69
2023/09/26 08:45:53;;;;;;;10.50;7.85;;;;;;;20.85;60.62;101960.13;5041598;28;20075;-69
2023/09/26 08:48:19;;;;;;;8.63;7.35;;;;;;;21.46;58.41;101944.44;5043317;28;20043;-70
2023/09/26 08:50:44;;;;;;;9.35;7.07;;;;;;;21.87;57.01;101947.81;5038829;28;20099;-70
2023/09/26 08:53:10;;;;;;;9.23;6.45;;;;;;;22.17;54.67;101941.25;5050526;28;20029;-70
2023/09/26 08:55:38;;;;;;;7.65;5.88;;;;;;;22.69;53.29;101934.75;5045896;28;20029;-70
2023/09/26 08:58:04;;;;;;;7.28;6.32;;;;;;;22.85;52.94;101931.81;5047041;28;20043;-70
2023/09/26 09:00:30;;;;;;;8.07;6.78;;;;;;;22.85;52.28;101937.19;5044280;28;20067;-70
2023/09/26 09:02:55;;;;;;;6.35;5.60;;;;;;;23.15;53.26;101939.44;5035394;28;20420;-70
2023/09/26 09:05:21;;;;;;;8.48;6.32;;;;;;;23.09;51.67;101935.38;5035265;28;20040;-73
2023/09/26 09:07:47;;;;;;;7.65;5.63;;;;;;;23.32;49.91;101941.72;5036408;28;20103;-69
2023/09/26 09:10:16;;;;;;;8.50;6.25;;;;;;;23.67;50.76;101932.75;5040830;28;20480;-70
2023/09/26 09:12:44;;;;;;;6.75;5.32;;;;;;;24.42;49.53;101924.94;5052401;28;20032;-70
2023/09/26 09:15:15;;;;;;;7.43;5.20;;;;;;;25.22;47.82;101926.44;5053531;28;20028;-70
2023/09/26 09:17:44;;;;;;;7.30;5.70;;;;;;;25.82;49.07;101934.84;5036730;28;20028;-70
2023/09/26 09:20:10;;;;;;;7.80;4.93;;;;;;;26.17;43.91;101932.63;5039825;28;20053;-70
2023/09/26 09:22:36;;;;;;;11.85;5.10;;;;;;;27.14;42.00;101924.72;5049988;28;20026;-70
2023/09/26 09:25:02;;;;;;;6.68;4.35;;;;;;;27.46;41.46;101926.25;5043776;28;20021;-70
2023/09/26 09:27:34;;;;;;;8.15;5.35;;;;;;;26.86;41.75;101944.50;5041021;28;20038;-70
2023/09/26 09:30:07;;;;;;;5.85;4.90;;;;;;;26.31;43.17;101947.66;5049798;28;20892;-69
2023/09/26 09:32:34;;;;;;;6.35;4.68;;;;;;;26.51;42.46;101947.75;5047122;28;20036;-68
2023/09/26 09:35:00;;;;;;;10.02;5.10;;;;;;;27.36;40.97;101933.56;5041000;28;20036;-70
2023/09/26 09:37:26;;;;;;;7.97;5.75;;;;;;;28.15;39.02;101930.50;5024520;28;20062;-69
2023/09/26 09:39:52;;;;;;;8.10;5.32;;;;;;;28.87;39.62;101937.00;5041273;28;20028;-69
2023/09/26 09:42:18;;;;;;;9.38;6.53;;;;;;;28.73;37.98;101927.50;5034943;28;21430;-69
2023/09/26 09:44:43;;;;;;;6.65;5.55;;;;;;;28.08;39.88;101915.81;5042969;28;20064;-70
2023/09/26 09:47:11;;;;;;;7.07;4.50;;;;;;;27.55;40.06;101917.22;5034299;28;20736;-69
2023/09/26 09:49:42;;;;;;;7.70;5.03;;;;;;;27.37;42.98;101918.97;5032281;28;20459;-71
2023/09/26 09:52:09;;;;;;;6.33;4.93;;;;;;;27.56;41.15;101907.22;5036242;28;20025;-72
2023/09/26 09:54:39;;;;;;;6.20;4.40;;;;;;;28.09;41.94;101888.47;5039085;28;20029;-72
2023/09/26 09:57:10;;;;;;;7.07;4.10;;;;;;;28.35;40.81;101894.09;5034150;28;20036;-72
2023/09/26 09:59:40;;;;;;;6.95;3.70;;;;;;;28.57;40.46;101898.25;5034017;28;20035;-74
2023/09/26 10:02:05;;;;;;;4.72;3.97;;;;;;;28.44;39.95;101901.31;5038700;28;20630;-74
2023/09/26 10:04:36;;;;;;;5.75;3.88;;;;;;;28.10;39.99;101906.50;5030086;28;20030;-73
2023/09/26 10:07:03;;;;;;;4.97;3.40;;;;;;;27.97;40.91;101900.53;5038768;28;20024;-72
2023/09/26 10:09:31;;;;;;;7.18;3.88;;;;;;;27.61;40.86;101904.94;5044365;28;20456;-72
2023/09/26 10:11:58;;;;;;;6.65;3.97;;;;;;;27.15;40.94;101910.16;5041289;28;20138;-72
2023/09/26 10:14:25;;;;;;;5.35;4.00;;;;;;;26.80;42.14;101910.66;5043660;28;20046;-71
2023/09/26 10:16:54;;;;;;;6.90;3.78;;;;;;;26.65;42.62;101907.50;5040204;28;20021;-72
2023/09/26 10:19:22;;;;;;;5.32;3.67;;;;;;;26.30;43.36;101907.97;5038687;28;20056;-72
2023/09/26 10:21:47;;;;;;;4.95;4.00;;;;;;;25.88;42.51;101902.69;5038851;28;20032;-72
2023/09/26 10:24:13;;;;;;;5.97;3.60;;;;;;;25.57;44.41;101898.19;5045549;28;20025;-72
2023/09/26 10:26:49;;;;;;;5.80;3.55;;;;;;;25.55;44.63;101905.56;5035393;28;20037;-72
2023/09/26 10:29:14;;;;;;;7.45;3.33;;;;;;;25.62;45.69;101906.78;5033990;28;20055;-72
2023/09/26 10:31:46;;;;;;;4.43;3.00;;;;;;;25.33;46.23;101902.03;5034673;28;20037;-72
2023/09/26 10:34:12;;;;;;;4.63;3.03;;;;;;;25.23;45.49;101903.81;5044093;28;20459;-72
2023/09/26 10:36:38;;;;;;;5.38;3.00;;;;;;;25.28;44.41;101896.16;5041055;28;20353;-73
2023/09/26 10:39:09;;;;;;;7.32;3.30;;;;;;;25.35;44.88;101896.47;5036059;28;20086;-73
2023/09/26 10:41:35;;;;;;;6.63;3.35;;;;;;;25.52;43.55;101898.59;5037193;28;20052;-73
2023/09/26 10:44:04;;;;;;;6.75;3.30;;;;;;;25.74;42.69;101899.41;5040682;28;20033;-73
2023/09/26 10:46:29;;;;;;;5.55;3.00;;;;;;;25.86;43.33;101896.53;5042663;28;20028;-72
2023/09/26 10:48:59;;;;;;;4.28;3.30;;;;;;;25.71;45.07;101889.72;5042469;28;20024;-72
2023/09/26 10:51:25;;;;;;;5.55;3.33;;;;;;;25.75;43.88;101884.91;5039215;28;20036;-72
2023/09/26 10:53:51;;;;;;;7.65;3.60;;;;;;;25.72;44.68;101891.44;5040192;28;20762;-73
2023/09/26 10:56:16;;;;;;;4.82;3.33;;;;;;;25.88;43.97;101899.09;5040814;28;20031;-73
2023/09/26 10:58:42;;;;;;;5.32;3.40;;;;;;;26.14;41.96;101902.19;5042034;28;20020;-71
2023/09/26 11:01:08;;;;;;;7.47;3.50;;;;;;;26.54;41.65;101891.38;5050413;28;20021;-71
2023/09/26 11:03:34;;;;;;;6.45;3.63;;;;;;;26.51;43.32;101883.50;5043812;28;20040;-70
2023/09/26 11:06:01;;;;;;;5.00;3.40;;;;;;;26.71;43.27;101873.53;5047607;28;20017;-72
2023/09/26 11:08:27;;;;;;;4.05;3.03;;;;;;;27.05;41.98;101875.84;5041155;28;20057;-72
2023/09/26 11:10:53;;;;;;;6.47;3.55;;;;;;;27.17;39.18;101891.84;5040191;28;20051;-71
2023/09/26 11:13:18;;;;;;;5.35;3.20;;;;;;;27.19;39.40;101897.16;5034060;28;20071;-70
2023/09/26 11:15:46;;;;;;;5.03;3.38;;;;;;;27.05;40.26;101897.56;5043022;28;20087;-70
2023/09/26 11:18:14;;;;;;;5.05;3.85;;;;;;;26.48;41.31;101901.91;5036488;28;20040;-71